createdAt,value
2023-04-26T00:02:15.300Z,65.67
2023-04-26T00:04:41.928Z,64.81
2023-04-26T00:07:08.502Z,65.71
2023-04-26T00:09:34.789Z,65.70
2023-04-26T00:12:01.146Z,65.80
2023-04-26T00:14:27.504Z,66.64
2023-04-26T00:16:54.211Z,66.00
2023-04-26T00:19:20.486Z,66.52
2023-04-26T00:21:46.805Z,65.48
2023-04-26T00:24:13.092Z,65.84
2023-04-26T00:26:39.388Z,66.52
2023-04-26T00:29:05.693Z,66.17
2023-04-26T00:31:32.134Z,66.00
2023-04-26T00:33:58.444Z,65.78
2023-04-26T00:36:24.762Z,66.30
2023-04-26T00:38:51.375Z,65.85
2023-04-26T00:41:17.794Z,66.18
2023-04-26T00:43:44.481Z,66.69
2023-04-26T00:46:10.907Z,66.73
2023-04-26T00:48:37.876Z,66.68
2023-04-26T00:51:05.624Z,66.52
2023-04-26T00:53:32.314Z,67.28
2023-04-26T00:55:58.883Z,67.54
2023-04-26T00:58:25.743Z,67.77
2023-04-26T01:00:52.207Z,68.13
2023-04-26T01:03:19.460Z,67.81
2023-04-26T01:05:46.341Z,67.73
2023-04-26T01:08:12.886Z,68.29
2023-04-26T01:10:40.054Z,68.93
2023-04-26T01:13:06.464Z,68.18
2023-04-26T01:15:32.864Z,68.04
2023-04-26T01:17:59.978Z,68.47
2023-04-26T01:20:26.305Z,67.96
2023-04-26T01:22:52.638Z,68.06
2023-04-26T01:25:19.294Z,68.51
2023-04-26T01:27:45.595Z,68.33
2023-04-26T01:30:12.230Z,69.06
2023-04-26T01:32:38.523Z,68.23
2023-04-26T01:35:05.302Z,69.20
2023-04-26T01:37:31.593Z,68.81
2023-04-26T01:39:57.888Z,68.06
2023-04-26T01:42:24.255Z,69.33
2023-04-26T01:44:50.648Z,68.69
2023-04-26T01:47:17.048Z,68.30
2023-04-26T01:49:43.500Z,68.89
2023-04-26T01:52:09.789Z,68.30
2023-04-26T01:54:36.191Z,68.97
2023-04-26T01:57:02.527Z,69.58
2023-04-26T01:59:29.017Z,69.73
2023-04-26T02:01:55.356Z,69.89
2023-04-26T02:04:21.781Z,69.76
2023-04-26T02:06:48.092Z,69.81
2023-04-26T02:09:14.419Z,69.60
2023-04-26T02:11:40.715Z,70.14
2023-04-26T02:14:07.253Z,70.47
2023-04-26T02:16:33.602Z,70.86
2023-04-26T02:19:00.002Z,70.22
2023-04-26T02:21:26.373Z,70.49
2023-04-26T02:23:52.943Z,70.48
2023-04-26T02:26:19.248Z,70.89
2023-04-26T02:28:45.670Z,71.19
2023-04-26T02:31:11.962Z,71.25
2023-04-26T02:33:38.256Z,70.95
2023-04-26T02:36:10.641Z,71.17
2023-04-26T02:38:41.964Z,70.77
2023-04-26T02:41:08.237Z,71.16
2023-04-26T02:43:39.605Z,70.94
2023-04-26T02:46:11.078Z,71.57
2023-04-26T02:48:37.550Z,72.21
2023-04-26T02:51:04.044Z,71.38
2023-04-26T02:53:30.328Z,71.20
2023-04-26T02:55:56.702Z,71.94
2023-04-26T02:58:23.050Z,71.55
2023-04-26T03:00:49.492Z,72.24
2023-04-26T03:03:16.067Z,73.34
2023-04-26T03:05:42.649Z,73.09
2023-04-26T03:08:08.968Z,72.44
2023-04-26T03:10:35.213Z,72.96
2023-04-26T03:13:01.633Z,72.97
2023-04-26T03:15:27.911Z,73.74
2023-04-26T03:17:54.220Z,73.26
2023-04-26T03:20:20.571Z,73.17
2023-04-26T03:22:46.877Z,72.86
2023-04-26T03:25:13.175Z,72.92
2023-04-26T03:27:39.575Z,72.80
2023-04-26T03:30:06.648Z,72.78
2023-04-26T03:32:33.065Z,72.43
2023-04-26T03:34:59.428Z,73.00
2023-04-26T03:37:25.680Z,72.93
2023-04-26T03:39:52.118Z,72.69
2023-04-26T03:42:18.403Z,72.75
2023-04-26T03:44:44.711Z,73.12
2023-04-26T03:47:11.010Z,73.17
2023-04-26T03:49:37.287Z,73.61
2023-04-26T03:52:03.771Z,73.95
2023-04-26T03:54:30.029Z,73.91
2023-04-26T03:56:56.417Z,74.25
2023-04-26T03:59:22.702Z,74.36
2023-04-26T04:01:49.008Z,74.20
2023-04-26T04:04:15.471Z,74.71
2023-04-26T04:06:41.976Z,74.35
2023-04-26T04:09:08.379Z,74.34
2023-04-26T04:11:34.740Z,74.63
2023-04-26T04:14:01.113Z,74.83
2023-04-26T04:16:27.499Z,74.20
2023-04-26T04:18:54.126Z,74.56
2023-04-26T04:21:20.632Z,74.30
2023-04-26T04:23:47.014Z,74.15
2023-04-26T04:26:13.390Z,74.01
2023-04-26T04:28:40.152Z,73.97
2023-04-26T04:31:06.504Z,73.63
2023-04-26T04:33:32.812Z,73.41
2023-04-26T04:35:59.197Z,73.53
2023-04-26T04:38:25.512Z,73.35
2023-04-26T04:40:51.811Z,73.26
2023-04-26T04:43:18.168Z,73.56
2023-04-26T04:45:44.461Z,73.28
2023-04-26T04:48:11.040Z,73.06
2023-04-26T04:50:39.098Z,73.34
2023-04-26T04:53:05.532Z,73.30
2023-04-26T04:55:31.824Z,73.72
2023-04-26T04:57:58.111Z,72.95
2023-04-26T05:00:24.714Z,73.13
2023-04-26T05:02:51.141Z,72.97
2023-04-26T05:05:17.696Z,72.82
2023-04-26T05:07:43.996Z,73.11
2023-04-26T05:10:10.975Z,72.70
2023-04-26T05:12:37.310Z,72.43
2023-04-26T05:15:04.548Z,72.35
2023-04-26T05:17:32.651Z,73.08
2023-04-26T05:19:58.971Z,72.51
2023-04-26T05:22:27.272Z,72.93
2023-04-26T05:24:53.655Z,72.38
2023-04-26T05:27:20.019Z,72.77
2023-04-26T05:29:46.391Z,72.37
2023-04-26T05:32:12.855Z,72.04
2023-04-26T05:34:39.267Z,71.14
2023-04-26T05:37:05.566Z,71.98
2023-04-26T05:39:31.958Z,70.99
2023-04-26T05:41:58.304Z,70.24
2023-04-26T05:44:24.566Z,69.94
2023-04-26T05:46:50.828Z,69.46
2023-04-26T05:49:17.170Z,70.38
2023-04-26T05:51:43.582Z,70.15
2023-04-26T05:54:09.939Z,70.45
2023-04-26T05:56:36.221Z,70.25
2023-04-26T05:59:02.565Z,69.18
2023-04-26T06:01:28.946Z,69.40
2023-04-26T06:03:57.864Z,68.99
2023-04-26T06:06:26.604Z,68.43
2023-04-26T06:08:52.884Z,68.10
2023-04-26T06:11:19.249Z,68.37
2023-04-26T06:13:45.540Z,67.06
2023-04-26T06:16:11.822Z,67.15
2023-04-26T06:18:38.084Z,66.84
2023-04-26T06:21:05.208Z,67.13
2023-04-26T06:23:31.517Z,66.57
2023-04-26T06:25:57.912Z,66.33
2023-04-26T06:28:24.226Z,65.91
2023-04-26T06:30:50.515Z,64.65
2023-04-26T06:33:17.031Z,65.00
2023-04-26T06:35:43.328Z,64.32
2023-04-26T06:38:09.755Z,65.00
2023-04-26T06:40:36.156Z,65.53
2023-04-26T06:43:02.879Z,64.74
2023-04-26T06:45:29.692Z,63.92
2023-04-26T06:47:56.136Z,63.06
2023-04-26T06:50:22.742Z,63.00
2023-04-26T06:52:49.049Z,61.64
2023-04-26T06:55:15.352Z,61.62
2023-04-26T06:57:41.622Z,61.43
2023-04-26T07:00:08.643Z,60.57
2023-04-26T07:02:35.156Z,58.61
2023-04-26T07:05:01.723Z,59.65
2023-04-26T07:07:28.437Z,59.17
2023-04-26T07:09:54.817Z,58.66
2023-04-26T07:12:21.101Z,56.90
2023-04-26T07:14:47.399Z,57.03
2023-04-26T07:17:13.766Z,57.38
2023-04-26T07:19:40.066Z,58.38
2023-04-26T07:22:06.394Z,56.34
2023-04-26T07:24:32.699Z,56.73
2023-04-26T07:26:59.094Z,56.92
2023-04-26T07:29:25.407Z,55.10
2023-04-26T07:31:51.725Z,54.64
2023-04-26T07:34:18.045Z,54.94
2023-04-26T07:36:44.327Z,54.60
2023-04-26T07:39:10.640Z,56.73
2023-04-26T07:41:37.156Z,56.65
2023-04-26T07:44:03.664Z,57.79
2023-04-26T07:46:29.974Z,54.86
2023-04-26T07:48:56.257Z,55.87
2023-04-26T07:51:22.581Z,53.05
2023-04-26T07:53:48.855Z,54.50
2023-04-26T07:56:15.153Z,50.18
2023-04-26T07:58:41.679Z,50.45
2023-04-26T08:01:07.986Z,50.16
2023-04-26T08:03:34.472Z,50.63
2023-04-26T08:06:01.406Z,51.03
2023-04-26T08:08:28.058Z,50.72
2023-04-26T08:10:54.759Z,50.23
2023-04-26T08:13:21.555Z,49.26
2023-04-26T08:15:48.214Z,48.50
2023-04-26T08:18:14.526Z,50.50
2023-04-26T08:20:41.007Z,50.19
2023-04-26T08:23:07.327Z,49.22
2023-04-26T08:25:33.603Z,47.78
2023-04-26T08:27:59.884Z,48.94
2023-04-26T08:30:26.184Z,47.95
2023-04-26T08:32:52.566Z,49.04
2023-04-26T08:35:18.999Z,49.97
2023-04-26T08:37:45.386Z,51.11
2023-04-26T08:40:11.725Z,48.62
2023-04-26T08:42:42.335Z,47.54
2023-04-26T08:45:09.030Z,44.45
2023-04-26T08:47:42.729Z,45.91
2023-04-26T08:50:11.630Z,45.26
2023-04-26T08:52:39.557Z,44.07
2023-04-26T08:55:07.752Z,44.04
2023-04-26T08:57:34.189Z,44.99
2023-04-26T09:00:02.332Z,44.42
2023-04-26T09:02:29.467Z,44.21
2023-04-26T09:04:56.025Z,42.95
2023-04-26T09:07:30.316Z,42.66
2023-04-26T09:09:58.528Z,42.60
2023-04-26T09:12:25.327Z,43.64
2023-04-26T09:14:51.778Z,42.81
2023-04-26T09:17:30.361Z,42.35
2023-04-26T09:19:57.400Z,43.80
2023-04-26T09:22:36.984Z,43.15
2023-04-26T09:25:04.110Z,43.80
2023-04-26T09:27:41.084Z,41.71
2023-04-26T09:30:14.775Z,43.14
2023-04-26T09:32:54.952Z,43.68
2023-04-26T09:35:33.479Z,41.27
2023-04-26T09:38:08.610Z,40.21
2023-04-26T09:40:46.016Z,38.77
2023-04-26T09:43:22.457Z,38.73
2023-04-26T09:45:53.881Z,39.54
2023-04-26T09:48:28.509Z,41.63
2023-04-26T09:51:08.320Z,37.83
2023-04-26T09:53:35.615Z,37.83
2023-04-26T09:56:12.041Z,38.20
2023-04-26T09:58:47.914Z,37.17
2023-04-26T10:01:15.799Z,37.37
2023-04-26T10:03:42.454Z,35.68
2023-04-26T10:06:09.227Z,36.63
2023-04-26T10:08:36.181Z,37.16
2023-04-26T10:11:06.898Z,35.19
2023-04-26T10:13:33.516Z,35.37
2023-04-26T10:16:00.493Z,34.47
2023-04-26T10:18:26.894Z,35.16
2023-04-26T10:20:57.244Z,35.02
2023-04-26T10:23:24.579Z,34.41
2023-04-26T10:25:51.411Z,34.69
2023-04-26T10:28:40.456Z,34.83
2023-04-26T10:31:06.823Z,33.44
2023-04-26T10:33:33.457Z,33.71
2023-04-26T10:36:07.523Z,35.58
2023-04-26T10:38:35.776Z,34.30
2023-04-26T10:41:31.050Z,34.05
2023-04-26T10:43:59.196Z,34.45
2023-04-26T10:46:38.808Z,35.29
2023-04-26T10:49:19.166Z,35.70
2023-04-26T10:52:10.966Z,35.31
2023-04-26T10:54:57.138Z,36.47
2023-04-26T10:57:47.453Z,37.22
2023-04-26T11:00:31.341Z,35.15
2023-04-26T11:03:02.547Z,35.82
2023-04-26T11:06:05.698Z,34.65
2023-04-26T11:08:32.036Z,34.40
2023-04-26T11:11:06.573Z,33.06
2023-04-26T11:13:35.227Z,33.74
2023-04-26T11:16:03.521Z,33.61
2023-04-26T11:18:30.752Z,34.75
2023-04-26T11:20:58.387Z,34.17
2023-04-26T11:23:27.432Z,34.52
2023-04-26T11:25:54.152Z,35.08
2023-04-26T11:28:20.822Z,34.44
2023-04-26T11:30:49.301Z,35.38
2023-04-26T11:33:20.700Z,35.11
2023-04-26T11:35:47.249Z,35.74
2023-04-26T11:38:13.958Z,35.56
2023-04-26T11:40:40.392Z,37.01
2023-04-26T11:43:07.642Z,35.10
2023-04-26T11:45:35.518Z,36.19
2023-04-26T11:48:03.388Z,34.43
2023-04-26T11:50:32.213Z,33.27
2023-04-26T11:53:00.362Z,34.39
2023-04-26T11:55:31.304Z,34.31
2023-04-26T11:57:58.880Z,33.05
2023-04-26T12:00:26.738Z,32.71
2023-04-26T12:02:53.881Z,33.82
2023-04-26T12:05:21.155Z,33.18
2023-04-26T12:07:52.290Z,31.63
2023-04-26T12:10:20.472Z,32.89
2023-04-26T12:12:51.228Z,33.26
2023-04-26T12:15:25.318Z,31.30
2023-04-26T12:17:56.763Z,31.28
2023-04-26T12:20:27.486Z,32.11
2023-04-26T12:23:05.262Z,32.09
2023-04-26T12:25:33.697Z,31.93
2023-04-26T12:28:00.869Z,33.20
2023-04-26T12:30:29.086Z,32.08
2023-04-26T12:33:05.797Z,31.72
2023-04-26T12:35:42.180Z,33.21
2023-04-26T12:38:08.649Z,33.57
2023-04-26T12:40:34.962Z,31.85
2023-04-26T12:43:01.318Z,31.13
2023-04-26T12:45:27.612Z,29.93
2023-04-26T12:47:54.478Z,30.29
2023-04-26T12:50:21.081Z,30.99
2023-04-26T12:52:47.608Z,31.48
2023-04-26T12:55:15.667Z,31.85
2023-04-26T12:57:43.820Z,32.09
2023-04-26T13:00:17.272Z,31.56
2023-04-26T13:02:44.194Z,32.77
2023-04-26T13:05:11.052Z,31.61
2023-04-26T13:07:40.576Z,30.92
2023-04-26T13:10:07.914Z,31.80
2023-04-26T13:12:34.898Z,32.72
2023-04-26T13:15:01.336Z,33.87
2023-04-26T13:17:28.032Z,33.16
2023-04-26T13:19:54.404Z,33.97
2023-04-26T13:22:20.783Z,32.27
2023-04-26T13:24:47.050Z,32.07
2023-04-26T13:27:13.777Z,32.38
2023-04-26T13:29:40.952Z,32.97
2023-04-26T13:32:07.673Z,33.15
2023-04-26T13:34:34.233Z,32.55
2023-04-26T13:37:00.562Z,33.43
2023-04-26T13:39:27.858Z,34.32
2023-04-26T13:41:54.309Z,33.26
2023-04-26T13:44:20.806Z,32.83
2023-04-26T13:46:47.436Z,33.16
2023-04-26T13:49:13.882Z,32.06
2023-04-26T13:51:40.588Z,31.20
2023-04-26T13:54:06.994Z,31.59
2023-04-26T13:56:33.451Z,32.59
2023-04-26T13:59:00.521Z,31.83
2023-04-26T14:01:27.414Z,32.44
2023-04-26T14:03:55.888Z,32.72
2023-04-26T14:06:22.730Z,32.34
2023-04-26T14:08:49.025Z,32.12
2023-04-26T14:11:15.484Z,31.01
2023-04-26T14:13:41.763Z,32.11
2023-04-26T14:16:08.177Z,32.93
2023-04-26T14:18:34.539Z,32.25
2023-04-26T14:21:00.968Z,32.55
2023-04-26T14:23:27.323Z,32.23
2023-04-26T14:25:53.834Z,32.25
2023-04-26T14:28:20.578Z,32.22
2023-04-26T14:30:46.869Z,32.34
2023-04-26T14:33:13.372Z,32.42
2023-04-26T14:35:39.968Z,32.43
2023-04-26T14:38:06.240Z,33.38
2023-04-26T14:40:32.996Z,33.66
2023-04-26T14:42:59.302Z,33.37
2023-04-26T14:45:36.861Z,33.14
2023-04-26T14:48:10.467Z,33.50
2023-04-26T14:50:36.758Z,32.82
2023-04-26T14:53:03.102Z,32.66
2023-04-26T14:55:29.548Z,32.01
2023-04-26T14:57:55.848Z,33.25
2023-04-26T15:00:22.667Z,32.79
2023-04-26T15:02:49.148Z,32.15
2023-04-26T15:05:15.653Z,32.87
2023-04-26T15:07:41.929Z,32.22
2023-04-26T15:10:08.726Z,32.26
2023-04-26T15:12:35.530Z,32.19
2023-04-26T15:15:02.573Z,32.94
2023-04-26T15:17:31.962Z,32.42
2023-04-26T15:19:58.471Z,32.61
2023-04-26T15:22:24.823Z,33.05
2023-04-26T15:24:51.216Z,32.87
2023-04-26T15:27:17.580Z,33.84
2023-04-26T15:29:43.969Z,33.01
2023-04-26T15:32:10.334Z,32.52
2023-04-26T15:34:40.426Z,32.40
2023-04-26T15:37:06.932Z,32.71
2023-04-26T15:39:33.254Z,32.17
2023-04-26T15:41:59.547Z,32.28
2023-04-26T15:44:25.924Z,33.24
2023-04-26T15:46:52.218Z,32.73
2023-04-26T15:49:18.567Z,33.36
2023-04-26T15:51:44.852Z,33.45
2023-04-26T15:54:11.188Z,31.55
2023-04-26T15:56:37.504Z,31.13
2023-04-26T15:59:03.845Z,30.30
2023-04-26T16:01:30.192Z,31.33
2023-04-26T16:03:56.719Z,31.86
2023-04-26T16:06:23.108Z,32.33
2023-04-26T16:08:49.420Z,32.06
2023-04-26T16:11:15.737Z,31.48
2023-04-26T16:13:42.074Z,31.66
2023-04-26T16:16:08.640Z,32.17
2023-04-26T16:18:35.038Z,32.99
2023-04-26T16:21:04.863Z,32.76
2023-04-26T16:23:31.183Z,30.13
2023-04-26T16:25:57.650Z,30.67
2023-04-26T16:28:23.951Z,30.97
2023-04-26T16:30:50.245Z,30.24
2023-04-26T16:33:16.550Z,30.77
2023-04-26T16:35:42.993Z,29.44
2023-04-26T16:38:09.282Z,30.04
2023-04-26T16:40:35.596Z,30.44
2023-04-26T16:43:01.916Z,30.24
2023-04-26T16:45:28.268Z,31.31
2023-04-26T16:47:54.642Z,32.73
2023-04-26T16:50:21.028Z,31.52
2023-04-26T16:52:47.416Z,31.13
2023-04-26T16:55:13.768Z,30.83
2023-04-26T16:57:40.068Z,30.65
2023-04-26T17:00:07.018Z,30.46
2023-04-26T17:02:33.521Z,30.98
2023-04-26T17:05:00.143Z,31.73
2023-04-26T17:07:26.708Z,31.98
2023-04-26T17:09:53.028Z,31.96
2023-04-26T17:12:19.310Z,32.94
2023-04-26T17:14:45.605Z,32.72
2023-04-26T17:17:11.946Z,33.15
2023-04-26T17:19:38.273Z,33.76
2023-04-26T17:22:04.609Z,33.53
2023-04-26T17:24:30.903Z,33.47
2023-04-26T17:26:57.284Z,34.08
2023-04-26T17:29:23.569Z,33.88
2023-04-26T17:31:49.968Z,34.13
2023-04-26T17:34:16.282Z,33.53
2023-04-26T17:36:42.663Z,33.44
2023-04-26T17:39:08.970Z,33.34
2023-04-26T17:41:35.276Z,34.08
2023-04-26T17:44:01.572Z,33.83
2023-04-26T17:46:28.105Z,34.15
2023-04-26T17:48:54.540Z,33.79
2023-04-26T17:51:20.933Z,33.28
2023-04-26T17:53:47.261Z,33.44
2023-04-26T17:56:13.569Z,32.94
2023-04-26T17:58:39.867Z,32.94
2023-04-26T18:01:06.388Z,33.67
2023-04-26T18:03:32.852Z,34.38
2023-04-26T18:05:59.279Z,34.21
2023-04-26T18:08:25.628Z,34.85
2023-04-26T18:10:52.045Z,35.63
2023-04-26T18:13:18.513Z,35.42
2023-04-26T18:15:45.086Z,36.41
2023-04-26T18:18:11.402Z,35.92
2023-04-26T18:20:37.770Z,36.83
2023-04-26T18:23:04.195Z,36.85
2023-04-26T18:25:30.490Z,37.63
2023-04-26T18:27:56.775Z,38.05
2023-04-26T18:30:23.199Z,37.77
2023-04-26T18:32:51.558Z,38.42
2023-04-26T18:35:18.116Z,38.18
2023-04-26T18:37:44.454Z,38.13
2023-04-26T18:40:11.392Z,38.33
2023-04-26T18:42:37.687Z,38.66
2023-04-26T18:45:05.705Z,39.16
2023-04-26T18:47:32.136Z,39.28
2023-04-26T18:49:58.580Z,40.24
2023-04-26T18:52:24.871Z,42.33
2023-04-26T18:54:51.172Z,41.64
2023-04-26T18:57:17.441Z,40.68
2023-04-26T18:59:43.711Z,41.40
2023-04-26T19:02:10.154Z,41.21
2023-04-26T19:04:36.873Z,41.28
2023-04-26T19:07:03.311Z,41.54
2023-04-26T19:09:31.987Z,42.31
2023-04-26T19:12:01.388Z,42.86
2023-04-26T19:14:27.682Z,42.78
2023-04-26T19:16:54.018Z,43.98
2023-04-26T19:19:20.315Z,43.60
2023-04-26T19:21:46.627Z,44.27
2023-04-26T19:24:12.926Z,44.65
2023-04-26T19:26:39.294Z,46.33
2023-04-26T19:29:06.825Z,45.63
2023-04-26T19:31:33.702Z,45.34
2023-04-26T19:34:00.052Z,45.23
2023-04-26T19:36:26.344Z,45.37
2023-04-26T19:38:52.671Z,45.38
2023-04-26T19:41:18.964Z,45.80
2023-04-26T19:43:45.301Z,45.64
2023-04-26T19:46:13.053Z,45.84
2023-04-26T19:48:40.099Z,45.98
2023-04-26T19:51:06.459Z,47.38
2023-04-26T19:53:33.174Z,46.88
2023-04-26T19:55:59.470Z,48.15
2023-04-26T19:58:25.750Z,48.00
2023-04-26T20:00:52.070Z,48.66
2023-04-26T20:03:18.523Z,48.16
2023-04-26T20:05:44.905Z,48.65
2023-04-26T20:08:11.236Z,48.81
2023-04-26T20:10:37.650Z,48.96
2023-04-26T20:13:03.938Z,50.20
2023-04-26T20:15:32.233Z,49.80
2023-04-26T20:18:00.596Z,51.62
2023-04-26T20:20:26.955Z,51.33
2023-04-26T20:22:53.243Z,52.42
2023-04-26T20:25:19.905Z,51.99
2023-04-26T20:27:46.973Z,52.16
2023-04-26T20:30:14.863Z,52.38
2023-04-26T20:32:41.435Z,52.57
2023-04-26T20:35:08.232Z,51.62
2023-04-26T20:37:34.790Z,51.58
2023-04-26T20:40:01.289Z,51.75
2023-04-26T20:42:27.673Z,52.70
2023-04-26T20:44:53.963Z,52.42
2023-04-26T20:47:20.232Z,53.37
2023-04-26T20:49:46.593Z,53.02
2023-04-26T20:52:12.938Z,53.20
2023-04-26T20:54:39.362Z,53.49
2023-04-26T20:57:05.721Z,53.64
2023-04-26T20:59:32.025Z,53.35
2023-04-26T21:01:58.433Z,53.02
2023-04-26T21:04:25.274Z,52.98
2023-04-26T21:06:51.744Z,53.09
2023-04-26T21:09:18.047Z,54.16
2023-04-26T21:11:47.652Z,53.57
2023-04-26T21:14:13.946Z,53.66
2023-04-26T21:16:40.842Z,53.02
2023-04-26T21:19:07.827Z,53.22
2023-04-26T21:21:34.572Z,55.02
2023-04-26T21:24:00.871Z,54.51
2023-04-26T21:26:27.134Z,55.10
2023-04-26T21:28:53.557Z,59.94
2023-04-26T21:31:19.872Z,55.86
2023-04-26T21:33:46.161Z,55.56
2023-04-26T21:36:12.565Z,57.26
2023-04-26T21:38:38.871Z,60.36
2023-04-26T21:41:05.233Z,56.98
2023-04-26T21:43:31.530Z,56.36
2023-04-26T21:45:58.351Z,57.35
2023-04-26T21:48:25.750Z,56.88
2023-04-26T21:50:52.280Z,56.87
2023-04-26T21:53:18.619Z,57.04
2023-04-26T21:55:50.780Z,56.45
2023-04-26T21:58:17.450Z,56.93
2023-04-26T22:00:43.918Z,57.24
2023-04-26T22:03:10.529Z,57.71
2023-04-26T22:05:37.091Z,58.59
2023-04-26T22:08:03.714Z,57.72
2023-04-26T22:10:30.278Z,58.74
2023-04-26T22:12:56.577Z,57.70
2023-04-26T22:15:23.276Z,58.57
2023-04-26T22:17:49.688Z,59.79
2023-04-26T22:20:16.070Z,58.76
2023-04-26T22:22:42.404Z,58.28
2023-04-26T22:25:09.218Z,58.90
2023-04-26T22:27:35.505Z,57.73
2023-04-26T22:30:09.418Z,59.40
2023-04-26T22:32:47.077Z,58.54
2023-04-26T22:35:13.537Z,58.53
2023-04-26T22:37:40.086Z,58.77
2023-04-26T22:40:07.168Z,59.13
2023-04-26T22:42:33.749Z,59.36
2023-04-26T22:45:00.281Z,59.69
2023-04-26T22:47:26.867Z,58.88
2023-04-26T22:49:53.404Z,59.87
2023-04-26T22:52:28.290Z,58.89
2023-04-26T22:54:58.138Z,60.16
2023-04-26T22:57:24.936Z,60.06
2023-04-26T22:59:51.501Z,59.45
2023-04-26T23:02:18.048Z,60.33
2023-04-26T23:04:44.856Z,60.49
2023-04-26T23:07:11.454Z,61.25
2023-04-26T23:09:38.104Z,61.10
2023-04-26T23:12:05.046Z,60.72
2023-04-26T23:14:31.930Z,60.63
2023-04-26T23:16:58.674Z,60.21
2023-04-26T23:19:25.709Z,60.29
2023-04-26T23:21:52.508Z,61.16
2023-04-26T23:24:19.116Z,61.11
2023-04-26T23:26:45.674Z,62.24
2023-04-26T23:29:15.422Z,61.41
2023-04-26T23:31:42.428Z,60.82
2023-04-26T23:34:09.174Z,61.28
2023-04-26T23:36:35.660Z,63.13
2023-04-26T23:39:02.265Z,64.24
2023-04-26T23:41:28.885Z,64.55
2023-04-26T23:43:55.555Z,64.02
2023-04-26T23:46:22.088Z,63.93
2023-04-26T23:48:48.638Z,62.76
2023-04-26T23:51:15.148Z,63.07
2023-04-26T23:53:41.595Z,62.68
2023-04-26T23:56:08.198Z,63.78
2023-04-26T23:58:34.699Z,63.09
